Time;durP1;ratioP1;P1;durP2;ratioP2;P2;SDS_P1;SDS_P2;PMS_P1;PMS_P2;Temp;Humidity;BMP_temperature;BMP_pressure;BME280_temperature;BME280_humidity;BME280_pressure;Samples;Min_cycle;Max_cycle;Signal;HPM_P1;HPM_P2
2023/07/18 00:01:15;;;;;;;10.40;9.50;;;;;;;22.69;59.14;95003.88;5058135;28;20036;-74
2023/07/18 00:03:40;;;;;;;12.73;10.15;;;;;;;22.82;59.05;95019.81;5067209;28;20035;-74
2023/07/18 00:06:06;;;;;;;10.57;9.45;;;;;;;22.54;59.74;95004.00;5071063;28;20069;-75
2023/07/18 00:08:31;;;;;;;11.18;9.48;;;;;;;22.59;59.81;95020.09;5049868;28;20025;-74
2023/07/18 00:10:57;;;;;;;10.50;9.48;;;;;;;22.32;60.51;94989.25;5070662;28;20035;-73
2023/07/18 00:13:23;;;;;;;10.45;9.30;;;;;;;22.42;60.82;94992.34;5069675;28;20047;-73
2023/07/18 00:15:48;;;;;;;10.70;9.68;;;;;;;22.09;61.69;94992.91;5068912;28;20118;-73
2023/07/18 00:18:14;;;;;;;10.90;9.80;;;;;;;22.19;62.11;95011.13;5070307;28;20465;-74
2023/07/18 00:20:40;;;;;;;11.20;10.10;;;;;;;22.16;62.33;95014.94;5053114;28;20037;-74
2023/07/18 00:23:09;;;;;;;11.00;9.90;;;;;;;22.14;62.28;95005.56;5070795;28;20032;-74
2023/07/18 00:25:35;;;;;;;10.85;9.75;;;;;;;22.08;62.72;94993.94;5049051;28;20033;-73
2023/07/18 00:28:00;;;;;;;11.43;10.32;;;;;;;21.98;63.08;94982.88;5049524;28;20506;-74
2023/07/18 00:30:26;;;;;;;11.32;10.25;;;;;;;21.94;63.21;94984.28;5051135;28;20044;-74
2023/07/18 00:32:51;;;;;;;11.88;10.43;;;;;;;21.95;63.81;94980.63;5066072;28;20026;-74
2023/07/18 00:35:17;;;;;;;11.60;10.25;;;;;;;21.92;63.80;94988.94;5068802;28;20043;-73
2023/07/18 00:37:42;;;;;;;11.13;9.98;;;;;;;22.00;63.53;95004.66;5069838;28;20029;-74
2023/07/18 00:40:10;;;;;;;12.95;10.50;;;;;;;21.89;63.53;94976.13;5052956;28;20120;-74
2023/07/18 00:42:43;;;;;;;11.75;10.25;;;;;;;21.88;63.64;94988.53;5069644;28;20047;-74
2023/07/18 00:45:09;;;;;;;13.80;10.27;;;;;;;21.75;63.70;94972.56;5086119;28;20162;-73
2023/07/18 00:47:40;;;;;;;11.13;10.13;;;;;;;21.89;63.58;94986.69;5069402;28;20032;-74
2023/07/18 00:50:18;;;;;;;13.30;10.57;;;;;;;21.86;63.31;94972.03;5069603;28;20029;-73
2023/07/18 00:52:53;;;;;;;11.35;10.20;;;;;;;21.71;63.01;94964.19;5032461;28;20029;-74
2023/07/18 00:55:18;;;;;;;11.68;10.38;;;;;;;21.80;62.97;94976.25;5032944;28;20510;-73
2023/07/18 00:57:45;;;;;;;11.60;10.43;;;;;;;21.61;62.69;94947.84;5032700;28;20025;-74
2023/07/18 01:00:11;;;;;;;11.20;10.10;;;;;;;21.63;63.37;94965.16;5065759;28;20446;-74
2023/07/18 01:02:41;;;;;;;12.52;10.50;;;;;;;21.75;62.89;94973.38;5065845;28;20085;-73
2023/07/18 01:05:08;;;;;;;11.60;10.40;;;;;;;21.73;62.60;94954.25;5052799;28;20502;-74
2023/07/18 01:07:34;;;;;;;12.07;10.88;;;;;;;21.70;62.77;94949.31;5069242;28;20029;-74
2023/07/18 01:10:13;;;;;;;11.60;10.50;;;;;;;21.70;62.81;94962.53;5066044;28;20037;-74
2023/07/18 01:12:39;;;;;;;11.88;10.73;;;;;;;21.65;63.07;94972.91;5049217;28;20528;-73
2023/07/18 01:15:05;;;;;;;11.38;10.35;;;;;;;21.66;63.12;94973.72;5065697;28;20033;-73
2023/07/18 01:17:31;;;;;;;11.70;10.48;;;;;;;21.55;63.09;94948.63;5050069;28;20123;-74
2023/07/18 01:19:56;;;;;;;14.55;10.25;;;;;;;21.62;62.96;94962.72;5057942;28;20498;-74
2023/07/18 01:22:22;;;;;;;12.30;10.75;;;;;;;21.56;63.16;94968.75;5052786;28;20025;-74
2023/07/18 01:24:47;;;;;;;11.60;10.40;;;;;;;21.49;63.37;94957.31;5054347;28;20033;-73
2023/07/18 01:27:13;;;;;;;11.00;9.90;;;;;;;21.49;63.21;94958.13;5054062;28;20154;-73
2023/07/18 01:29:39;;;;;;;12.35;10.02;;;;;;;21.52;62.62;94952.47;5068366;28;20054;-74
2023/07/18 01:32:04;;;;;;;11.32;10.18;;;;;;;21.52;63.01;94956.94;5073826;28;20029;-73
2023/07/18 01:34:30;;;;;;;10.75;9.68;;;;;;;21.81;62.27;94975.25;5055997;28;20047;-73
2023/07/18 01:36:55;;;;;;;12.27;10.57;;;;;;;21.62;62.61;94960.06;5071600;28;20042;-73
2023/07/18 01:39:21;;;;;;;11.32;10.15;;;;;;;21.70;63.11;94959.91;5072548;28;20036;-73
2023/07/18 01:41:47;;;;;;;12.52;9.95;;;;;;;21.58;63.57;94974.66;5072438;28;20426;-73
2023/07/18 01:44:13;;;;;;;11.25;10.15;;;;;;;21.47;63.01;94972.53;5072404;28;20513;-74
2023/07/18 01:46:38;;;;;;;11.88;10.68;;;;;;;21.39;62.93;94950.50;5072558;28;20025;-74
2023/07/18 01:49:03;;;;;;;10.40;9.40;;;;;;;21.33;63.20;94951.25;5073483;28;20028;-74
2023/07/18 01:51:29;;;;;;;10.27;9.20;;;;;;;21.46;62.77;94976.19;5072392;28;20020;-74
2023/07/18 01:53:54;;;;;;;10.63;9.43;;;;;;;21.54;62.68;94973.41;5073468;28;20024;-73
2023/07/18 01:56:20;;;;;;;10.70;9.15;;;;;;;21.63;62.42;94988.13;5071417;28;20029;-74
2023/07/18 01:58:46;;;;;;;10.35;9.38;;;;;;;21.47;62.22;94957.50;5072154;28;20020;-74
2023/07/18 02:01:11;;;;;;;11.38;10.13;;;;;;;21.57;62.28;94983.63;5071996;28;20032;-74
2023/07/18 02:03:37;;;;;;;11.02;9.93;;;;;;;21.54;62.49;94971.59;5071986;28;20032;-73
2023/07/18 02:06:02;;;;;;;10.82;9.82;;;;;;;21.56;61.99;94960.81;5072230;28;20495;-73
2023/07/18 02:08:28;;;;;;;10.75;9.73;;;;;;;21.49;62.10;94957.31;5055419;28;20052;-73
2023/07/18 02:10:53;;;;;;;10.95;9.77;;;;;;;21.49;61.94;94954.69;5073704;28;20028;-73
2023/07/18 02:13:18;;;;;;;11.20;10.05;;;;;;;21.44;62.29;94947.31;5072508;28;20474;-74
2023/07/18 02:15:44;;;;;;;10.73;9.70;;;;;;;21.55;61.73;94959.19;5055414;28;20094;-73
2023/07/18 02:18:09;;;;;;;10.43;9.43;;;;;;;21.42;62.23;94950.16;5071622;28;20521;-73
2023/07/18 02:20:35;;;;;;;10.70;9.65;;;;;;;21.55;61.81;94965.28;5073363;28;20063;-74
2023/07/18 02:23:00;;;;;;;10.95;9.95;;;;;;;21.42;62.16;94959.88;5050766;28;20423;-73
2023/07/18 02:25:26;;;;;;;10.98;9.88;;;;;;;21.47;62.22;94969.91;5051823;28;20029;-74
2023/07/18 02:27:52;;;;;;;11.20;10.02;;;;;;;21.37;62.64;94967.59;5035020;28;20033;-73
2023/07/18 02:30:17;;;;;;;10.98;9.90;;;;;;;21.42;62.40;94962.53;5051439;28;20105;-73
2023/07/18 02:32:43;;;;;;;12.70;10.05;;;;;;;21.53;62.54;94974.41;5064109;28;20024;-74
2023/07/18 02:35:09;;;;;;;11.50;10.30;;;;;;;21.45;62.71;94974.53;5054939;28;20040;-73
2023/07/18 02:37:35;;;;;;;11.30;10.15;;;;;;;21.33;62.79;94963.66;5071495;28;20062;-74
2023/07/18 02:40:03;;;;;;;11.30;10.13;;;;;;;21.30;62.57;94966.66;5071701;28;20043;-74
2023/07/18 02:42:31;;;;;;;11.00;9.90;;;;;;;21.30;62.59;94972.75;5070460;28;20040;-74
2023/07/18 02:44:57;;;;;;;10.82;9.82;;;;;;;21.31;62.36;94971.78;5055043;28;20036;-74
2023/07/18 02:47:22;;;;;;;10.95;9.93;;;;;;;21.31;62.43;94974.41;5071204;28;20028;-74
2023/07/18 02:49:47;;;;;;;10.63;9.63;;;;;;;21.25;62.60;94975.16;5070273;28;20487;-74
2023/07/18 02:52:13;;;;;;;10.35;9.35;;;;;;;21.22;62.55;94962.31;5072393;28;20080;-73
2023/07/18 02:54:38;;;;;;;10.60;9.57;;;;;;;21.35;62.21;94978.31;5071260;28;20402;-73
2023/07/18 02:57:04;;;;;;;12.20;9.95;;;;;;;21.14;62.52;94950.06;5071028;28;20050;-74
2023/07/18 02:59:30;;;;;;;10.55;9.55;;;;;;;21.36;62.02;94977.28;5070173;28;20036;-73
2023/07/18 03:01:57;;;;;;;10.90;9.80;;;;;;;21.26;61.89;94966.25;5070884;28;20182;-73
2023/07/18 03:04:26;;;;;;;12.15;9.88;;;;;;;21.36;62.13;94987.03;5054539;28;20512;-74
2023/07/18 03:06:52;;;;;;;10.57;9.50;;;;;;;21.13;62.40;94966.09;5071012;28;20107;-73
2023/07/18 03:09:19;;;;;;;11.20;10.18;;;;;;;21.26;62.09;94990.00;5050420;28;20056;-73
2023/07/18 03:11:45;;;;;;;10.65;9.65;;;;;;;21.24;62.10;94978.00;5066742;28;20020;-73
2023/07/18 03:14:11;;;;;;;12.73;9.60;;;;;;;21.35;61.94;94980.94;5091551;28;20474;-74
2023/07/18 03:16:38;;;;;;;10.63;9.63;;;;;;;21.07;62.38;94959.75;5087580;28;20107;-74
2023/07/18 03:19:04;;;;;;;10.93;9.82;;;;;;;21.07;62.66;94964.22;5071736;28;20051;-74
2023/07/18 03:21:29;;;;;;;10.63;9.63;;;;;;;21.29;62.42;94981.72;5054026;28;20033;-74
2023/07/18 03:23:55;;;;;;;10.75;9.75;;;;;;;21.07;62.95;94980.06;5070526;28;20025;-74
2023/07/18 03:26:21;;;;;;;11.57;10.38;;;;;;;21.27;62.85;94990.81;5049660;28;20029;-73
2023/07/18 03:28:46;;;;;;;11.52;10.32;;;;;;;21.33;62.81;95003.28;5033992;28;20029;-74
2023/07/18 03:31:12;;;;;;;11.32;9.90;;;;;;;21.18;62.60;94980.38;5051703;28;20017;-74
2023/07/18 03:33:37;;;;;;;11.18;10.07;;;;;;;21.21;63.33;94997.69;5067000;28;20525;-74
2023/07/18 03:36:04;;;;;;;10.32;9.32;;;;;;;21.08;63.31;94984.34;5062511;28;20056;-74
2023/07/18 03:38:30;;;;;;;10.90;9.80;;;;;;;21.27;62.77;95002.19;5071482;28;20508;-74
2023/07/18 03:40:57;;;;;;;11.40;10.07;;;;;;;21.23;62.34;94987.75;5053748;28;20032;-74
2023/07/18 03:43:22;;;;;;;11.25;9.23;;;;;;;21.35;62.29;94996.78;5071386;28;20052;-74
2023/07/18 03:45:48;;;;;;;10.93;9.82;;;;;;;21.24;62.20;94992.03;5069621;28;20033;-73
2023/07/18 03:48:13;;;;;;;10.65;9.65;;;;;;;21.24;62.37;95007.88;5053450;28;20479;-73
2023/07/18 03:50:39;;;;;;;11.10;9.95;;;;;;;21.21;62.44;94992.41;5053692;28;20380;-74
2023/07/18 03:53:04;;;;;;;11.20;9.63;;;;;;;21.23;62.46;94990.41;5069133;28;20017;-74
2023/07/18 03:55:30;;;;;;;13.30;10.45;;;;;;;21.26;63.45;95023.53;5053435;28;20028;-73
2023/07/18 03:57:56;;;;;;;16.23;11.07;;;;;;;21.14;63.52;95020.56;5069934;28;20067;-73
2023/07/18 04:00:21;;;;;;;15.85;11.70;;;;;;;21.36;63.40;95035.41;5053404;28;20055;-73
2023/07/18 04:02:47;;;;;;;13.63;11.13;;;;;;;21.37;63.31;95031.81;5068959;28;20036;-73
2023/07/18 04:05:14;;;;;;;11.45;10.00;;;;;;;21.47;62.87;95035.97;5053501;28;20032;-73
2023/07/18 04:07:39;;;;;;;11.93;10.68;;;;;;;21.46;63.58;95044.91;5069855;28;20039;-73
2023/07/18 04:10:05;;;;;;;11.70;10.52;;;;;;;21.59;62.92;95034.44;5053312;28;20029;-73
2023/07/18 04:12:31;;;;;;;14.23;10.90;;;;;;;22.31;60.84;95049.25;5054839;28;20519;-74
2023/07/18 04:14:57;;;;;;;11.73;10.57;;;;;;;22.93;59.05;95052.88;5083261;28;20530;-74
2023/07/18 04:17:24;;;;;;;10.82;9.70;;;;;;;23.54;56.91;95044.06;5066351;28;20032;-74
2023/07/18 04:19:51;;;;;;;10.45;9.38;;;;;;;24.05;55.41;95035.59;5050261;28;20029;-74
2023/07/18 04:22:17;;;;;;;10.73;9.63;;;;;;;24.64;54.12;95034.69;5066538;28;20110;-74
2023/07/18 04:24:43;;;;;;;10.88;9.52;;;;;;;25.15;52.12;95025.09;5033082;28;20029;-73
2023/07/18 04:27:08;;;;;;;12.52;10.48;;;;;;;25.87;49.99;95027.53;5083040;28;20078;-74
2023/07/18 04:29:34;;;;;;;10.65;9.63;;;;;;;26.03;48.56;95017.16;5071749;28;20020;-74
2023/07/18 04:31:59;;;;;;;10.13;9.20;;;;;;;26.46;48.19;95018.19;5070612;28;20032;-74
2023/07/18 04:34:24;;;;;;;11.35;9.88;;;;;;;26.88;47.58;95026.38;5069515;28;20398;-74
2023/07/18 04:36:50;;;;;;;10.80;9.80;;;;;;;26.99;47.20;95000.81;5069464;28;20123;-74
2023/07/18 04:39:15;;;;;;;10.10;9.20;;;;;;;27.39;46.73;95025.13;5069678;28;20033;-74
2023/07/18 04:41:41;;;;;;;10.32;9.00;;;;;;;27.95;45.29;95015.91;5069347;28;20564;-74
2023/07/18 04:44:06;;;;;;;9.85;8.95;;;;;;;28.19;44.62;95008.69;5070519;28;20044;-74
2023/07/18 04:46:32;;;;;;;9.85;8.85;;;;;;;28.48;44.30;95011.53;5052804;28;20021;-74
2023/07/18 04:48:58;;;;;;;10.10;9.15;;;;;;;28.41;43.45;95000.91;5068330;28;20391;-74
2023/07/18 04:51:24;;;;;;;9.63;8.65;;;;;;;28.54;43.79;95009.78;5064465;28;20029;-74
2023/07/18 04:53:49;;;;;;;9.80;8.90;;;;;;;28.43;44.13;95004.22;5069811;28;20029;-74
2023/07/18 04:56:15;;;;;;;10.32;9.43;;;;;;;28.28;44.21;95011.88;5071109;28;20043;-74
2023/07/18 04:58:40;;;;;;;11.82;8.75;;;;;;;28.21;44.58;94998.59;5061982;28;20039;-75
2023/07/18 05:01:06;;;;;;;11.13;9.48;;;;;;;27.91;45.08;94990.69;5051258;28;20037;-74
2023/07/18 05:03:32;;;;;;;10.65;9.40;;;;;;;27.67;45.89;94991.69;5067488;28;20035;-74
2023/07/18 05:05:57;;;;;;;10.48;9.13;;;;;;;27.71;45.88;94979.50;5064949;28;20498;-74
2023/07/18 05:08:23;;;;;;;10.80;9.80;;;;;;;27.70;46.11;94993.91;5072291;28;20414;-75
2023/07/18 05:10:49;;;;;;;10.60;9.60;;;;;;;27.76;46.11;95003.66;5074159;28;20122;-73
2023/07/18 05:13:15;;;;;;;11.40;9.07;;;;;;;27.70;46.44;94988.56;5053430;28;20033;-74
2023/07/18 05:15:43;;;;;;;9.93;9.00;;;;;;;27.73;45.47;94980.91;5067304;28;20032;-74
2023/07/18 05:18:09;;;;;;;9.77;8.77;;;;;;;27.78;46.39;94993.56;5059879;28;20049;-74
2023/07/18 05:20:35;;;;;;;10.10;9.07;;;;;;;27.66;45.95;94988.19;5065973;28;20032;-74
2023/07/18 05:23:01;;;;;;;9.80;8.90;;;;;;;27.69;46.19;94984.25;5096669;28;20043;-74
2023/07/18 05:25:27;;;;;;;10.95;8.45;;;;;;;27.83;45.76;94999.03;5061905;28;20110;-74
2023/07/18 05:27:52;;;;;;;9.93;8.93;;;;;;;27.80;46.18;94992.34;5052709;28;20122;-74
2023/07/18 05:30:19;;;;;;;9.55;8.48;;;;;;;27.83;45.71;94991.03;5057784;28;20037;-74
2023/07/18 05:32:45;;;;;;;11.35;9.98;;;;;;;27.60;47.17;94997.94;5059374;28;20108;-74
2023/07/18 05:35:11;;;;;;;11.90;9.95;;;;;;;27.07;48.42;94985.31;5070207;28;20028;-74
2023/07/18 05:37:37;;;;;;;11.85;9.65;;;;;;;27.65;47.56;94991.91;5066146;28;20395;-74
2023/07/18 05:40:03;;;;;;;12.07;10.13;;;;;;;27.00;49.22;95005.94;5052359;28;20139;-74
2023/07/18 05:42:29;;;;;;;16.23;10.27;;;;;;;27.37;48.52;94997.88;5077891;28;20498;-74
2023/07/18 05:44:54;;;;;;;11.60;10.38;;;;;;;27.37;48.02;94997.88;5069034;28;20063;-74
2023/07/18 05:47:20;;;;;;;11.13;9.77;;;;;;;27.65;48.26;95001.78;5072812;28;20040;-74
2023/07/18 05:49:45;;;;;;;11.88;9.88;;;;;;;27.83;47.89;94997.22;5069050;28;20029;-74
2023/07/18 05:52:10;;;;;;;12.85;9.77;;;;;;;28.14;46.61;95000.59;5072534;28;20037;-74
2023/07/18 05:54:36;;;;;;;13.48;10.60;;;;;;;28.23;46.03;95003.72;5072723;28;20020;-73
2023/07/18 05:57:01;;;;;;;11.75;10.13;;;;;;;28.15;46.44;95007.56;5068789;28;20032;-73
2023/07/18 05:59:27;;;;;;;12.82;10.10;;;;;;;27.95;46.85;94999.88;5069561;28;20070;-74
2023/07/18 06:01:53;;;;;;;14.10;10.45;;;;;;;27.83;46.71;94997.22;5079576;28;20062;-74
2023/07/18 06:04:18;;;;;;;12.23;10.68;;;;;;;28.14;45.85;94995.25;5073113;28;20056;-74
2023/07/18 06:06:44;;;;;;;11.38;10.27;;;;;;;28.35;46.50;95006.38;5053132;28;20028;-74
2023/07/18 06:09:10;;;;;;;12.75;10.00;;;;;;;28.45;46.40;95012.81;5062641;28;20519;-74
2023/07/18 06:11:36;;;;;;;12.80;10.25;;;;;;;28.72;46.07;94998.94;5113566;27;20028;-74
2023/07/18 06:14:01;;;;;;;10.68;9.65;;;;;;;28.85;45.15;94992.53;5074861;28;20410;-74
2023/07/18 06:16:27;;;;;;;12.88;10.20;;;;;;;28.91;45.76;94989.69;5076670;28;20035;-74
2023/07/18 06:18:53;;;;;;;11.88;10.60;;;;;;;29.02;45.11;95000.59;5068301;28;20075;-74
2023/07/18 06:21:19;;;;;;;12.30;11.00;;;;;;;28.94;45.32;94983.88;5062774;28;20039;-74
2023/07/18 06:23:44;;;;;;;11.98;10.30;;;;;;;29.19;44.56;94996.16;5054587;28;20025;-74
2023/07/18 06:26:09;;;;;;;11.65;10.45;;;;;;;29.10;44.62;94989.56;5072590;28;20029;-74
2023/07/18 06:28:35;;;;;;;13.48;9.95;;;;;;;29.10;43.98;94987.69;5052916;28;20027;-74
2023/07/18 06:31:00;;;;;;;12.25;10.07;;;;;;;29.04;43.08;94980.63;5071046;28;20035;-74
2023/07/18 06:33:26;;;;;;;14.10;9.93;;;;;;;29.58;42.48;94983.75;5071439;28;20033;-74
2023/07/18 06:35:55;;;;;;;13.40;9.63;;;;;;;29.57;42.90;94974.09;5073052;28;20037;-74
2023/07/18 06:38:21;;;;;;;12.23;10.23;;;;;;;29.36;44.08;94985.50;5069122;28;20525;-73
2023/07/18 06:40:47;;;;;;;14.57;10.20;;;;;;;29.60;43.99;94992.34;5074715;28;20033;-74
2023/07/18 06:43:13;;;;;;;12.05;9.98;;;;;;;29.58;43.79;94985.59;5049578;28;20037;-73
2023/07/18 06:45:38;;;;;;;11.57;10.45;;;;;;;29.55;43.50;94980.75;5045333;28;20485;-73
2023/07/18 06:48:05;;;;;;;11.65;10.45;;;;;;;29.80;43.25;94989.22;5067561;28;20036;-73
2023/07/18 06:50:30;;;;;;;10.90;9.80;;;;;;;30.01;43.21;94995.72;5077038;28;20095;-73
2023/07/18 06:52:56;;;;;;;13.13;10.95;;;;;;;29.96;42.21;94984.94;5078903;28;20124;-74
2023/07/18 06:55:21;;;;;;;11.90;10.73;;;;;;;29.82;41.92;94995.16;5057568;28;20083;-72
2023/07/18 06:57:48;;;;;;;13.50;10.60;;;;;;;29.78;41.98;94990.50;5051736;28;20041;-72
2023/07/18 07:00:14;;;;;;;11.95;10.75;;;;;;;30.13;41.41;94994.81;5071777;28;20024;-73
2023/07/18 07:02:39;;;;;;;12.98;11.30;;;;;;;30.20;41.99;94993.59;5090853;28;20551;-74
2023/07/18 07:05:05;;;;;;;12.60;11.40;;;;;;;30.27;41.50;94999.63;5054328;28;20079;-75
2023/07/18 07:07:30;;;;;;;13.13;10.80;;;;;;;30.44;41.86;94993.44;5038057;28;20037;-74
2023/07/18 07:09:56;;;;;;;15.25;11.70;;;;;;;30.28;42.78;94987.03;5067320;28;20524;-74
2023/07/18 07:12:21;;;;;;;14.68;12.43;;;;;;;30.41;42.11;94997.41;5078556;28;20470;-74
2023/07/18 07:14:47;;;;;;;14.05;12.57;;;;;;;30.20;42.22;95001.66;5065200;28;20045;-75
2023/07/18 07:17:12;;;;;;;16.75;11.75;;;;;;;30.12;42.08;94988.66;5069352;28;20058;-74
2023/07/18 07:19:38;;;;;;;16.70;11.98;;;;;;;30.30;42.08;94992.97;5035297;28;20490;-73
2023/07/18 07:22:03;;;;;;;17.27;12.52;;;;;;;30.14;42.16;94986.53;5068606;28;20048;-74
2023/07/18 07:24:30;;;;;;;14.55;12.30;;;;;;;30.36;42.40;94991.16;5071818;28;20475;-75
2023/07/18 07:26:55;;;;;;;15.73;13.68;;;;;;;30.54;41.84;94998.13;5068098;28;20074;-74
2023/07/18 07:29:21;;;;;;;14.55;12.63;;;;;;;30.37;42.15;94992.78;5034884;28;20028;-74
2023/07/18 07:31:46;;;;;;;14.55;13.05;;;;;;;30.57;42.30;95006.47;5063668;28;20024;-75
2023/07/18 07:34:12;;;;;;;14.60;12.88;;;;;;;30.43;42.53;95007.88;5068898;28;20029;-74
2023/07/18 07:36:37;;;;;;;19.67;14.05;;;;;;;30.28;42.18;94998.59;5077556;28;20043;-74
2023/07/18 07:39:03;;;;;;;17.08;13.95;;;;;;;30.19;42.32;94993.84;5066281;28;20036;-74
2023/07/18 07:41:28;;;;;;;20.92;13.40;;;;;;;30.34;41.84;95001.31;5069554;28;20044;-73
2023/07/18 07:43:54;;;;;;;16.92;13.05;;;;;;;30.41;42.58;95001.97;5069663;28;20020;-73
2023/07/18 07:46:19;;;;;;;18.38;13.60;;;;;;;30.38;42.31;94999.78;5087964;28;20048;-73
2023/07/18 07:48:44;;;;;;;18.55;13.60;;;;;;;30.32;42.42;94998.88;5064481;28;20017;-73
2023/07/18 07:51:14;;;;;;;15.40;13.38;;;;;;;30.60;42.75;94994.44;5068577;28;20063;-73
2023/07/18 07:53:39;;;;;;;17.88;14.30;;;;;;;30.27;42.64;94986.22;5069528;28;20109;-73
2023/07/18 07:56:05;;;;;;;14.52;13.13;;;;;;;30.37;42.33;94998.97;5072596;28;20037;-72
2023/07/18 07:58:30;;;;;;;17.45;14.00;;;;;;;30.38;42.23;95000.59;5067878;28;20029;-71
2023/07/18 08:00:56;;;;;;;17.02;12.70;;;;;;;30.59;42.38;94988.28;5050853;28;20028;-73
2023/07/18 08:03:21;;;;;;;15.73;13.27;;;;;;;30.97;41.68;94977.78;5069077;28;20035;-71
2023/07/18 08:05:46;;;;;;;19.27;14.55;;;;;;;30.92;42.23;94992.75;5077801;28;20020;-72
2023/07/18 08:08:12;;;;;;;14.82;13.43;;;;;;;30.70;42.62;94984.69;5066900;28;20777;-73
2023/07/18 08:10:37;;;;;;;16.95;13.38;;;;;;;30.91;41.67;94984.94;5075379;28;20024;-72
2023/07/18 08:13:03;;;;;;;17.38;14.07;;;;;;;30.83;42.45;94996.91;5068272;28;20111;-72
2023/07/18 08:15:28;;;;;;;15.50;13.90;;;;;;;30.98;41.69;94982.06;5073930;28;20463;-73
2023/07/18 08:17:57;;;;;;;18.08;14.90;;;;;;;30.85;42.50;94973.34;5070019;28;20056;-72
2023/07/18 08:20:23;;;;;;;15.23;13.80;;;;;;;31.07;42.58;94984.06;5070080;28;20052;-72
2023/07/18 08:22:48;;;;;;;19.33;13.98;;;;;;;30.91;42.82;94979.59;5049725;28;20453;-72
2023/07/18 08:25:13;;;;;;;16.88;13.98;;;;;;;31.34;41.51;94991.31;5071478;28;20029;-72
2023/07/18 08:27:39;;;;;;;23.50;14.50;;;;;;;31.37;41.68;94966.69;5054634;28;20513;-73
2023/07/18 08:30:06;;;;;;;15.82;13.85;;;;;;;31.50;41.63;94997.69;5066538;28;20090;-73
2023/07/18 08:32:31;;;;;;;17.13;13.45;;;;;;;31.93;40.25;94990.56;5089403;28;20501;-72
2023/07/18 08:34:57;;;;;;;16.27;13.48;;;;;;;31.93;41.13;94996.75;5057261;28;20036;-73
2023/07/18 08:37:22;;;;;;;15.88;14.13;;;;;;;31.86;40.39;94984.56;5061171;28;20044;-73
2023/07/18 08:39:48;;;;;;;17.15;14.23;;;;;;;31.70;41.09;94986.31;5096075;28;20078;-74
2023/07/18 08:42:14;;;;;;;17.45;13.50;;;;;;;32.10;40.78;94988.56;5066690;28;20041;-73
2023/07/18 08:44:39;;;;;;;15.88;14.25;;;;;;;32.12;40.16;94988.28;5037998;28;20027;-73
2023/07/18 08:47:05;;;;;;;17.20;15.32;;;;;;;31.33;41.40;94992.38;5050630;28;20029;-73
2023/07/18 08:49:31;;;;;;;17.83;14.70;;;;;;;31.75;42.39;94986.38;5031315;28;20437;-73
2023/07/18 08:51:56;;;;;;;17.05;15.25;;;;;;;31.64;41.72;94976.59;5043408;28;20052;-70
2023/07/18 08:54:22;;;;;;;17.23;15.70;;;;;;;32.03;40.59;94974.53;5050231;28;20036;-73
2023/07/18 08:56:47;;;;;;;17.88;15.98;;;;;;;32.39;40.34;94977.47;5053648;28;20033;-72
2023/07/18 08:59:12;;;;;;;17.77;16.05;;;;;;;32.30;39.60;94973.66;5066874;28;20040;-73
2023/07/18 09:01:51;;;;;;;17.10;15.60;;;;;;;32.45;38.87;94976.41;5051540;28;20407;-73
2023/07/18 09:04:16;;;;;;;17.15;15.40;;;;;;;32.82;39.61;94987.13;5047637;28;20056;-74
2023/07/18 09:06:47;;;;;;;16.98;15.30;;;;;;;33.06;38.24;94970.56;5083299;28;20028;-74
2023/07/18 09:09:21;;;;;;;17.85;15.95;;;;;;;32.86;39.00;94973.97;5065576;28;20071;-74
2023/07/18 09:11:59;;;;;;;16.25;14.75;;;;;;;32.69;37.70;94960.72;5052355;28;20032;-74
2023/07/18 09:14:29;;;;;;;16.25;14.70;;;;;;;32.87;37.74;94957.53;5030530;28;20056;-73
2023/07/18 09:16:59;;;;;;;16.05;14.57;;;;;;;32.75;38.05;94962.34;5057931;28;20598;-73
2023/07/18 09:19:44;;;;;;;18.40;15.23;;;;;;;32.61;38.50;94964.69;5066949;28;20110;-73
2023/07/18 09:22:11;;;;;;;16.48;14.88;;;;;;;32.71;38.71;94969.34;5069960;28;20126;-73
2023/07/18 09:24:37;;;;;;;16.23;14.60;;;;;;;32.45;38.34;94966.47;5085222;28;20032;-74
2023/07/18 09:27:07;;;;;;;17.38;15.48;;;;;;;32.39;39.33;94959.44;5029927;28;20538;-74
2023/07/18 09:29:32;;;;;;;15.88;14.25;;;;;;;32.57;39.19;94973.53;5036282;28;20029;-73
2023/07/18 09:31:58;;;;;;;16.52;14.50;;;;;;;32.22;38.68;94948.06;5063989;28;20107;-72
2023/07/18 09:34:24;;;;;;;16.00;14.40;;;;;;;32.30;38.57;94958.31;5068567;28;20028;-74
2023/07/18 09:37:03;;;;;;;16.98;15.23;;;;;;;32.35;39.25;94952.19;5071175;28;20034;-74
2023/07/18 09:39:29;;;;;;;17.27;15.27;;;;;;;32.37;39.48;94952.72;5049610;28;20033;-75
2023/07/18 09:41:55;;;;;;;16.05;14.55;;;;;;;32.49;39.18;94966.81;5058568;28;20564;-75
2023/07/18 09:44:22;;;;;;;16.63;14.88;;;;;;;32.55;38.72;94952.31;5055229;28;20077;-73
2023/07/18 09:46:47;;;;;;;15.68;13.88;;;;;;;32.68;38.44;94945.63;5071264;28;20112;-74
2023/07/18 09:49:14;;;;;;;16.33;14.00;;;;;;;33.07;37.55;94946.09;5067329;28;20490;-76
2023/07/18 09:51:40;;;;;;;15.30;13.75;;;;;;;32.98;37.97;94931.50;5053001;28;20036;-73
2023/07/18 09:54:06;;;;;;;17.05;13.35;;;;;;;33.32;37.51;94941.81;5056794;28;20029;-73
2023/07/18 09:56:34;;;;;;;13.88;12.57;;;;;;;33.61;37.04;94935.97;5075491;28;20047;-74
2023/07/18 09:59:01;;;;;;;13.75;12.32;;;;;;;33.18;37.12;94949.59;5066802;28;20479;-73
2023/07/18 10:01:26;;;;;;;14.32;12.88;;;;;;;33.12;37.86;94948.78;5071060;28;20090;-75
2023/07/18 10:03:52;;;;;;;14.20;12.80;;;;;;;32.74;38.37;94939.22;5038128;28;20464;-74
2023/07/18 10:06:17;;;;;;;13.50;12.20;;;;;;;32.53;38.98;94943.69;5054053;28;20402;-74
2023/07/18 10:08:44;;;;;;;13.85;12.27;;;;;;;32.56;39.40;94945.06;5028432;28;20025;-74
2023/07/18 10:11:11;;;;;;;14.55;13.00;;;;;;;32.75;39.18;94932.78;5044931;28;20123;-74
2023/07/18 10:13:55;;;;;;;17.55;12.35;;;;;;;33.01;37.16;94928.28;5045759;28;20501;-74
2023/07/18 10:16:20;;;;;;;13.93;12.52;;;;;;;32.57;38.66;94914.41;5069807;28;20511;-74
2023/07/18 10:18:49;;;;;;;14.60;12.80;;;;;;;32.63;38.81;94929.50;5069201;28;20036;-74
2023/07/18 10:21:34;;;;;;;14.00;12.60;;;;;;;32.88;38.32;94937.66;5077136;28;20517;-74
2023/07/18 10:24:32;;;;;;;13.70;12.32;;;;;;;32.94;38.52;94939.28;5052262;28;20032;-74
2023/07/18 10:27:00;;;;;;;13.35;11.88;;;;;;;32.89;38.01;94928.50;5051513;28;20080;-74
2023/07/18 10:29:31;;;;;;;13.55;12.00;;;;;;;32.82;38.33;94925.28;5066203;28;20052;-74
2023/07/18 10:31:57;;;;;;;13.00;11.68;;;;;;;32.67;38.33;94920.63;5070773;28;20079;-74
2023/07/18 10:34:22;;;;;;;13.15;11.77;;;;;;;32.71;37.88;94905.59;5049675;28;20032;-73
2023/07/18 10:36:59;;;;;;;12.18;11.05;;;;;;;32.93;37.42;94918.03;5079750;28;20028;-74
2023/07/18 10:39:39;;;;;;;13.65;10.98;;;;;;;32.78;37.65;94923.38;5066095;28;20037;-74
2023/07/18 10:42:21;;;;;;;16.63;11.50;;;;;;;32.77;37.36;94933.31;5087764;28;20474;-77
2023/07/18 10:44:47;;;;;;;12.88;10.45;;;;;;;32.69;38.04;94929.25;5041052;28;20119;-72
2023/07/18 10:47:17;;;;;;;12.13;9.95;;;;;;;32.76;37.21;94918.25;5082618;28;20041;-73
2023/07/18 10:49:43;;;;;;;13.45;10.25;;;;;;;32.56;37.22;94907.41;5050089;28;20025;-72
2023/07/18 10:52:08;;;;;;;12.10;9.63;;;;;;;32.49;36.82;94929.97;5068824;28;20040;-73
2023/07/18 10:54:34;;;;;;;12.70;10.45;;;;;;;32.54;37.55;94923.00;5054166;28;20051;-75
2023/07/18 10:57:00;;;;;;;10.77;9.73;;;;;;;32.43;37.55;94906.81;5054325;28;20472;-74
2023/07/18 10:59:25;;;;;;;9.88;8.85;;;;;;;32.50;36.04;94909.28;5067407;28;20494;-73
2023/07/18 11:01:51;;;;;;;10.15;9.13;;;;;;;32.47;36.50;94907.91;5068882;28;20036;-74
2023/07/18 11:04:16;;;;;;;12.52;8.90;;;;;;;32.71;36.52;94910.97;5064406;28;20479;-77
2023/07/18 11:06:49;;;;;;;9.90;6.72;;;;;;;32.75;32.94;94922.00;5073859;28;20032;-73
2023/07/18 11:09:15;;;;;;;12.82;7.18;;;;;;;32.65;34.02;94911.22;5083673;28;20410;-73
2023/07/18 11:11:40;;;;;;;9.10;6.65;;;;;;;32.56;34.23;94924.34;5069394;28;20024;-73
2023/07/18 11:14:06;;;;;;;10.63;5.78;;;;;;;32.48;34.66;94911.41;5062759;28;20044;-73
2023/07/18 11:16:31;;;;;;;7.90;5.25;;;;;;;32.44;33.38;94929.09;5048576;28;20063;-74
2023/07/18 11:18:59;;;;;;;5.93;4.63;;;;;;;32.32;33.16;94918.56;5066926;28;20049;-74